createdAt,value
2022-08-17T00:01:51.581Z,95227.00
2022-08-17T00:05:58.160Z,95223.00
2022-08-17T00:10:00.942Z,95216.00
2022-08-17T00:14:06.745Z,95213.00
2022-08-17T00:18:53.877Z,95215.00
2022-08-17T00:22:36.454Z,95217.00
2022-08-17T00:26:44.993Z,95208.00
2022-08-17T00:30:52.971Z,95211.00
2022-08-17T00:34:57.435Z,95208.00
2022-08-17T00:39:00.170Z,95205.00
2022-08-17T00:43:13.647Z,95208.00
2022-08-17T00:47:16.450Z,95195.00
2022-08-17T00:51:24.299Z,95190.00
2022-08-17T00:55:27.507Z,95183.00
2022-08-17T00:59:34.924Z,95180.00
2022-08-17T01:03:39.189Z,95187.00
2022-08-17T01:07:44.536Z,95183.00
2022-08-17T01:11:52.221Z,95180.00
2022-08-17T01:15:58.804Z,95190.00
2022-08-17T01:20:01.724Z,95183.00
2022-08-17T01:24:06.480Z,95188.00
2022-08-17T01:28:09.499Z,95189.00
2022-08-17T01:32:13.118Z,95180.00
2022-08-17T01:36:15.977Z,95176.00
2022-08-17T01:40:26.715Z,95175.00
2022-08-17T01:44:29.577Z,95176.00
2022-08-17T01:48:33.561Z,95173.00
2022-08-17T01:52:36.621Z,95183.00
2022-08-17T01:56:44.380Z,95181.00
2022-08-17T02:01:01.067Z,95175.00
2022-08-17T02:05:04.895Z,95175.00
2022-08-17T02:09:08.151Z,95178.00
2022-08-17T02:13:20.927Z,95180.00
2022-08-17T02:17:23.823Z,95168.00
2022-08-17T02:21:26.590Z,95163.00
2022-08-17T02:25:32.883Z,95164.00
2022-08-17T02:29:37.165Z,95149.00
2022-08-17T02:33:42.659Z,95152.00
2022-08-17T02:37:46.291Z,95152.00
2022-08-17T02:42:01.937Z,95147.00
2022-08-17T02:46:06.546Z,95140.00
2022-08-17T02:50:11.476Z,95122.00
2022-08-17T02:54:40.774Z,95123.00
2022-08-17T02:58:37.083Z,95106.00
2022-08-17T03:02:42.708Z,95119.00
2022-08-17T03:06:45.511Z,95124.00
2022-08-17T03:10:48.773Z,95127.00
2022-08-17T03:14:51.493Z,95127.00
2022-08-17T03:18:55.699Z,95124.00
2022-08-17T03:23:03.017Z,95121.00
2022-08-17T03:27:06.218Z,95118.00
2022-08-17T03:31:08.984Z,95132.00
2022-08-17T03:35:15.198Z,95131.00
2022-08-17T03:39:20.687Z,95136.00
2022-08-17T03:43:23.898Z,95136.00
2022-08-17T03:47:44.299Z,95135.00
2022-08-17T03:52:05.741Z,95139.00
2022-08-17T03:56:26.168Z,95142.00
2022-08-17T04:00:29.215Z,95140.00
2022-08-17T04:04:32.004Z,95138.00
2022-08-17T04:08:36.153Z,95146.00
2022-08-17T04:12:50.638Z,95140.00
2022-08-17T04:16:53.600Z,95137.00
2022-08-17T04:20:57.899Z,95132.00
2022-08-17T04:25:08.122Z,95129.00
2022-08-17T04:29:10.883Z,95131.00
2022-08-17T04:33:15.794Z,95135.00
2022-08-17T04:37:18.715Z,95127.00
2022-08-17T04:41:40.102Z,95121.00
2022-08-17T04:45:55.434Z,95119.00
2022-08-17T04:50:02.365Z,95114.00
2022-08-17T04:54:07.718Z,95119.00
2022-08-17T04:58:11.898Z,95131.00
2022-08-17T05:02:15.135Z,95146.00
2022-08-17T05:06:17.987Z,95145.00
2022-08-17T05:10:21.149Z,95149.00
2022-08-17T05:14:33.037Z,95158.00
2022-08-17T05:18:37.204Z,95160.00
2022-08-17T05:22:51.149Z,95160.00
2022-08-17T05:26:54.105Z,95157.00
2022-08-17T05:31:03.369Z,95157.00
2022-08-17T05:35:07.608Z,95154.00
2022-08-17T05:39:15.915Z,95150.00
2022-08-17T05:43:22.061Z,95141.00
2022-08-17T05:47:27.370Z,95154.00
2022-08-17T05:51:43.847Z,95149.00
2022-08-17T05:55:54.331Z,95143.00
2022-08-17T06:00:06.299Z,95143.00
2022-08-17T06:04:28.018Z,95143.00
2022-08-17T06:08:39.510Z,95141.00
2022-08-17T06:12:56.825Z,95148.00
2022-08-17T06:17:05.395Z,95157.00
2022-08-17T06:21:13.976Z,95145.00
2022-08-17T06:25:18.057Z,95153.00
2022-08-17T06:29:30.786Z,95160.00
2022-08-17T06:33:36.941Z,95183.00
2022-08-17T06:37:59.267Z,95188.00
2022-08-17T06:42:54.758Z,95197.00
2022-08-17T06:46:37.610Z,95214.00
2022-08-17T06:50:47.541Z,95220.00
2022-08-17T06:54:59.913Z,95235.00
2022-08-17T06:59:04.089Z,95239.00
2022-08-17T07:03:15.517Z,95256.00
2022-08-17T07:07:38.300Z,95255.00
2022-08-17T07:11:51.022Z,95260.00
2022-08-17T07:15:59.478Z,95267.00
2022-08-17T07:20:08.534Z,95257.00
2022-08-17T07:24:29.420Z,95265.00
2022-08-17T07:28:35.873Z,95282.00
2022-08-17T07:32:43.899Z,95295.00
2022-08-17T07:36:46.701Z,95291.00
2022-08-17T07:41:02.087Z,95294.00
2022-08-17T07:45:29.186Z,95281.00
2022-08-17T07:49:37.053Z,95278.00
2022-08-17T07:53:39.837Z,95275.00
2022-08-17T07:57:42.644Z,95284.00
2022-08-17T08:01:49.298Z,95283.00
2022-08-17T08:06:01.963Z,95272.00
2022-08-17T08:10:11.036Z,95256.00
2022-08-17T08:14:28.615Z,95271.00
2022-08-17T08:18:53.672Z,95273.00
2022-08-17T08:23:07.215Z,95259.00
2022-08-17T08:27:20.702Z,95254.00
2022-08-17T08:31:31.455Z,95254.00
2022-08-17T08:35:40.324Z,95246.00
2022-08-17T08:39:55.632Z,95245.00
2022-08-17T08:44:11.255Z,95241.00
2022-08-17T08:48:57.110Z,95247.00
2022-08-17T08:53:01.201Z,95239.00
2022-08-17T08:57:28.042Z,95244.00
2022-08-17T09:01:51.911Z,95241.00
2022-08-17T09:06:32.235Z,95252.00
2022-08-17T09:10:56.778Z,95266.00
2022-08-17T09:15:12.296Z,95258.00
2022-08-17T09:19:21.003Z,95252.00
2022-08-17T09:23:32.403Z,95239.00
2022-08-17T09:27:48.265Z,95246.00
2022-08-17T09:31:56.041Z,95241.00
2022-08-17T09:36:03.551Z,95238.00
2022-08-17T09:40:16.649Z,95242.00
2022-08-17T09:44:27.765Z,95245.00
2022-08-17T09:48:37.835Z,95245.00
2022-08-17T09:52:42.629Z,95243.00
2022-08-17T09:57:11.878Z,95238.00
2022-08-17T10:01:31.378Z,95238.00
2022-08-17T10:05:46.221Z,95242.00
2022-08-17T10:10:01.564Z,95252.00
2022-08-17T10:14:36.263Z,95257.00
2022-08-17T10:18:39.748Z,95257.00
2022-08-17T10:23:05.575Z,95247.00
2022-08-17T10:27:13.532Z,95257.00
2022-08-17T10:31:40.086Z,95254.00
2022-08-17T10:35:53.266Z,95257.00
2022-08-17T10:40:17.489Z,95265.00
2022-08-17T10:44:39.947Z,95255.00
2022-08-17T10:48:44.327Z,95257.00
2022-08-17T10:52:50.142Z,95250.00
2022-08-17T10:56:54.875Z,95251.00
2022-08-17T11:00:59.628Z,95254.00
2022-08-17T11:05:15.572Z,95263.00
2022-08-17T11:09:35.915Z,95283.00
2022-08-17T11:13:48.438Z,95262.00
2022-08-17T11:18:07.667Z,95266.00
2022-08-17T11:22:36.638Z,95258.00
2022-08-17T11:26:46.655Z,95264.00
2022-08-17T11:30:52.039Z,95255.00
2022-08-17T11:35:06.255Z,95249.00
2022-08-17T11:39:25.625Z,95253.00
2022-08-17T11:43:55.358Z,95253.00
2022-08-17T11:48:27.857Z,95265.00
2022-08-17T11:52:40.770Z,95285.00
2022-08-17T11:56:47.093Z,95292.00
2022-08-17T12:01:09.547Z,95264.00
2022-08-17T12:05:40.598Z,95250.00
2022-08-17T12:09:48.719Z,95253.00
2022-08-17T12:13:59.739Z,95240.00
2022-08-17T12:18:03.981Z,95244.00
2022-08-17T12:22:12.523Z,95259.00
2022-08-17T12:26:19.759Z,95255.00
2022-08-17T12:30:23.210Z,95241.00
2022-08-17T12:34:35.878Z,95239.00
2022-08-17T12:38:39.725Z,95231.00
2022-08-17T12:42:42.634Z,95225.00
2022-08-17T12:46:59.583Z,95221.00
2022-08-17T12:51:07.776Z,95210.00
2022-08-17T12:55:18.555Z,95205.00
2022-08-17T12:59:29.935Z,95223.00
2022-08-17T13:03:41.895Z,95259.00
2022-08-17T13:07:47.494Z,95256.00
2022-08-17T13:11:52.799Z,95260.00
2022-08-17T13:15:58.033Z,95249.00
2022-08-17T13:20:00.896Z,95238.00
2022-08-17T13:24:14.613Z,95243.00
2022-08-17T13:28:30.608Z,95250.00
2022-08-17T13:32:43.576Z,95253.00
2022-08-17T13:36:48.838Z,95252.00
2022-08-17T13:40:55.022Z,95246.00
2022-08-17T13:44:58.191Z,95250.00
2022-08-17T13:49:03.701Z,95249.00
2022-08-17T13:53:17.847Z,95252.00
2022-08-17T13:57:24.627Z,95258.00
2022-08-17T14:01:32.598Z,95254.00
2022-08-17T14:05:38.268Z,95233.00
2022-08-17T14:09:53.165Z,95217.00
2022-08-17T14:13:57.268Z,95209.00
2022-08-17T14:18:00.356Z,95209.00
2022-08-17T14:22:03.631Z,95210.00
2022-08-17T14:26:06.788Z,95207.00
2022-08-17T14:30:11.982Z,95201.00
2022-08-17T14:34:15.077Z,95194.00
2022-08-17T14:38:18.751Z,95186.00
2022-08-17T14:42:24.396Z,95188.00
2022-08-17T14:46:28.615Z,95203.00
2022-08-17T14:50:31.843Z,95192.00
2022-08-17T14:54:34.784Z,95192.00
2022-08-17T14:58:38.888Z,95198.00
2022-08-17T15:02:50.846Z,95186.00
2022-08-17T15:06:53.614Z,95203.00
2022-08-17T15:10:56.372Z,95203.00
2022-08-17T15:15:00.531Z,95191.00
2022-08-17T15:19:05.157Z,95208.00
2022-08-17T15:23:09.582Z,95210.00
2022-08-17T15:27:12.917Z,95212.00
2022-08-17T15:31:15.847Z,95213.00
2022-08-17T15:35:27.453Z,95212.00
2022-08-17T15:39:31.460Z,95209.00
2022-08-17T15:43:34.791Z,95202.00
2022-08-17T15:47:37.682Z,95207.00
2022-08-17T15:51:41.760Z,95209.00
2022-08-17T15:55:44.539Z,95212.00
2022-08-17T15:59:47.618Z,95204.00
2022-08-17T16:04:04.716Z,95212.00
2022-08-17T16:08:11.571Z,95211.00
2022-08-17T16:12:16.577Z,95202.00
2022-08-17T16:16:19.334Z,95203.00
2022-08-17T16:20:22.095Z,95205.00
2022-08-17T16:24:26.481Z,95196.00
2022-08-17T16:28:35.766Z,95197.00
2022-08-17T16:32:40.306Z,95181.00
2022-08-17T16:36:54.722Z,95181.00
2022-08-17T16:40:59.947Z,95178.00
2022-08-17T16:45:05.613Z,95175.00
2022-08-17T16:49:08.622Z,95180.00
2022-08-17T16:53:17.814Z,95169.00
2022-08-17T16:57:23.183Z,95163.00
2022-08-17T17:01:26.050Z,95160.00
2022-08-17T17:05:51.411Z,95156.00
2022-08-17T17:09:59.846Z,95148.00
2022-08-17T17:14:07.751Z,95145.00
2022-08-17T17:18:13.094Z,95147.00
2022-08-17T17:22:20.503Z,95144.00
2022-08-17T17:26:35.189Z,95145.00
2022-08-17T17:30:49.339Z,95139.00
2022-08-17T17:34:58.683Z,95134.00
2022-08-17T17:39:06.791Z,95131.00
2022-08-17T17:43:37.126Z,95130.00
2022-08-17T17:47:38.290Z,95134.00
2022-08-17T17:52:06.835Z,95146.00
2022-08-17T17:56:43.119Z,95131.00
2022-08-17T18:00:51.967Z,95133.00
2022-08-17T18:05:07.552Z,95129.00
2022-08-17T18:09:23.963Z,95127.00
2022-08-17T18:13:39.176Z,95119.00
2022-08-17T18:18:02.014Z,95108.00
2022-08-17T18:22:13.081Z,95111.00
2022-08-17T18:26:37.457Z,95119.00
2022-08-17T18:30:40.212Z,95109.00
2022-08-17T18:34:47.810Z,95116.00
2022-08-17T18:39:11.296Z,95120.00
2022-08-17T18:43:25.143Z,95120.00
2022-08-17T18:47:29.306Z,95113.00
2022-08-17T18:51:42.269Z,95124.00
2022-08-17T18:55:47.568Z,95130.00
2022-08-17T18:59:51.667Z,95127.00
2022-08-17T19:03:54.544Z,95118.00
2022-08-17T19:08:16.991Z,95104.00
2022-08-17T19:12:28.475Z,95090.00
2022-08-17T19:16:39.268Z,95102.00
2022-08-17T19:20:45.535Z,95103.00
2022-08-17T19:24:55.762Z,95107.00
2022-08-17T19:29:16.154Z,95112.00
2022-08-17T19:33:22.581Z,95113.00
2022-08-17T19:37:36.423Z,95130.00
2022-08-17T19:41:45.277Z,95132.00
2022-08-17T19:46:01.644Z,95131.00
2022-08-17T19:50:12.673Z,95125.00
2022-08-17T19:54:21.064Z,95131.00
2022-08-17T19:58:38.383Z,95137.00
2022-08-17T20:02:52.782Z,95131.00
2022-08-17T20:06:57.644Z,95131.00
2022-08-17T20:11:05.570Z,95136.00
2022-08-17T20:15:12.410Z,95136.00
2022-08-17T20:19:24.364Z,95146.00
2022-08-17T20:23:41.850Z,95134.00
2022-08-17T20:27:52.298Z,95111.00
2022-08-17T20:32:13.981Z,95111.00
2022-08-17T20:36:20.381Z,95110.00
2022-08-17T20:40:29.876Z,95103.00
2022-08-17T20:44:34.456Z,95095.00
2022-08-17T20:48:42.012Z,95094.00
2022-08-17T20:52:51.785Z,95104.00
2022-08-17T20:56:57.660Z,95112.00
2022-08-17T21:01:12.800Z,95107.00
2022-08-17T21:05:32.309Z,95111.00
2022-08-17T21:09:38.607Z,95114.00
2022-08-17T21:14:05.469Z,95102.00
2022-08-17T21:18:18.339Z,95091.00
2022-08-17T21:22:35.089Z,95088.00
2022-08-17T21:26:51.088Z,95083.00
2022-08-17T21:30:58.378Z,95078.00
2022-08-17T21:35:28.410Z,95087.00
2022-08-17T21:39:34.378Z,95097.00
2022-08-17T21:43:48.522Z,95112.00
2022-08-17T21:48:07.313Z,95119.00
2022-08-17T21:52:15.065Z,95143.00
2022-08-17T21:56:25.114Z,95170.00
2022-08-17T22:00:32.239Z,95178.00
2022-08-17T22:04:37.219Z,95187.00
2022-08-17T22:08:39.999Z,95210.00
2022-08-17T22:13:03.327Z,95230.00
2022-08-17T22:17:16.455Z,95232.00
2022-08-17T22:21:19.822Z,95260.00
2022-08-17T22:25:27.075Z,95277.00
2022-08-17T22:29:54.267Z,95304.00
2022-08-17T22:34:14.236Z,95301.00
2022-08-17T22:38:31.971Z,95331.00
2022-08-17T22:42:42.768Z,95358.00
2022-08-17T22:46:56.350Z,95376.00
2022-08-17T22:51:12.849Z,95380.00
2022-08-17T22:55:36.155Z,95360.00
2022-08-17T22:59:46.706Z,95335.00
2022-08-17T23:03:55.127Z,95335.00
2022-08-17T23:07:59.251Z,95341.00
2022-08-17T23:12:02.296Z,95343.00
2022-08-17T23:16:05.692Z,95334.00
2022-08-17T23:20:12.027Z,95341.00
2022-08-17T23:24:20.684Z,95348.00
2022-08-17T23:28:23.359Z,95375.00
2022-08-17T23:32:26.553Z,95381.00
2022-08-17T23:36:29.398Z,95379.00
2022-08-17T23:40:33.491Z,95387.00
2022-08-17T23:44:36.882Z,95390.00
2022-08-17T23:48:41.026Z,95412.00
2022-08-17T23:52:46.520Z,95401.00
2022-08-17T23:56:50.743Z,95412.00
